createdAt,value
2022-10-22T00:01:02.317Z,14.70
2022-10-22T00:03:30.770Z,15.33
2022-10-22T00:05:58.965Z,15.20
2022-10-22T00:08:28.404Z,15.80
2022-10-22T00:10:56.554Z,14.33
2022-10-22T00:13:24.549Z,15.17
2022-10-22T00:15:52.544Z,13.77
2022-10-22T00:18:20.568Z,14.03
2022-10-22T00:20:48.560Z,14.40
2022-10-22T00:23:16.583Z,15.03
2022-10-22T00:25:45.935Z,13.97
2022-10-22T00:28:14.957Z,14.73
2022-10-22T00:30:43.055Z,14.40
2022-10-22T00:33:11.072Z,14.67
2022-10-22T00:35:39.170Z,16.27
2022-10-22T00:38:07.237Z,15.17
2022-10-22T00:40:35.267Z,14.47
2022-10-22T00:43:04.658Z,14.70
2022-10-22T00:45:32.740Z,13.33
2022-10-22T00:48:04.620Z,13.90
2022-10-22T00:50:36.636Z,13.57
2022-10-22T00:53:08.019Z,14.23
2022-10-22T00:55:36.692Z,13.47
2022-10-22T00:58:06.229Z,13.57
2022-10-22T01:00:34.533Z,14.80
2022-10-22T01:03:03.041Z,15.37
2022-10-22T01:05:34.146Z,15.07
2022-10-22T01:08:02.183Z,14.90
2022-10-22T01:10:48.094Z,14.23
2022-10-22T01:13:32.412Z,13.27
2022-10-22T01:16:07.784Z,14.97
2022-10-22T01:18:40.917Z,13.60
2022-10-22T01:21:16.331Z,15.37
2022-10-22T01:24:10.930Z,14.83
2022-10-22T01:26:51.069Z,15.63
2022-10-22T01:29:23.630Z,14.83
2022-10-22T01:31:56.926Z,14.97
2022-10-22T01:34:26.862Z,16.53
2022-10-22T01:36:56.673Z,13.70
2022-10-22T01:39:26.418Z,13.80
2022-10-22T01:41:56.612Z,15.07
2022-10-22T01:44:31.129Z,15.70
2022-10-22T01:47:12.414Z,15.10
2022-10-22T01:50:01.193Z,16.77
2022-10-22T01:52:40.350Z,14.70
2022-10-22T01:55:17.139Z,13.63
2022-10-22T01:57:54.424Z,13.70
2022-10-22T02:00:24.869Z,12.77
2022-10-22T02:03:03.337Z,12.77
2022-10-22T02:05:38.114Z,13.90
2022-10-22T02:08:10.482Z,13.47
2022-10-22T02:10:40.114Z,14.40
2022-10-22T02:13:10.821Z,12.67
2022-10-22T02:15:41.173Z,12.60
2022-10-22T02:18:10.783Z,12.77
2022-10-22T02:20:42.010Z,12.23
2022-10-22T02:23:11.359Z,12.13
2022-10-22T02:25:42.166Z,12.23
2022-10-22T02:28:14.937Z,13.40
2022-10-22T02:30:47.751Z,13.50
2022-10-22T02:33:20.522Z,13.47
2022-10-22T02:35:49.801Z,13.87
2022-10-22T02:38:18.387Z,13.40
2022-10-22T02:40:46.639Z,14.10
2022-10-22T02:43:14.763Z,14.07
2022-10-22T02:45:44.098Z,14.57
2022-10-22T02:48:12.102Z,16.63
2022-10-22T02:50:40.147Z,15.90
2022-10-22T02:53:08.110Z,14.33
2022-10-22T02:55:36.098Z,10.70
2022-10-22T02:58:04.173Z,11.63
2022-10-22T03:00:32.222Z,10.83
2022-10-22T03:03:01.570Z,12.40
2022-10-22T03:05:29.552Z,12.47
2022-10-22T03:07:57.538Z,10.83
2022-10-22T03:10:25.530Z,9.13
2022-10-22T03:12:53.527Z,9.77
2022-10-22T03:15:21.558Z,9.00
2022-10-22T03:17:49.534Z,9.20
2022-10-22T03:20:18.996Z,9.33
2022-10-22T03:22:47.469Z,8.37
2022-10-22T03:25:19.269Z,6.90
2022-10-22T03:27:48.461Z,5.80
2022-10-22T03:30:16.950Z,5.20
2022-10-22T03:32:45.033Z,4.97
2022-10-22T03:35:13.029Z,6.00
2022-10-22T03:37:42.853Z,5.80
2022-10-22T03:40:12.775Z,6.77
2022-10-22T03:42:41.263Z,6.77
2022-10-22T03:45:10.207Z,7.33
2022-10-22T03:47:38.703Z,7.73
2022-10-22T03:50:08.210Z,7.97
2022-10-22T03:52:40.966Z,8.20
2022-10-22T03:55:10.881Z,7.23
2022-10-22T03:57:39.161Z,7.90
2022-10-22T04:00:08.757Z,8.43
2022-10-22T04:02:36.776Z,8.03
2022-10-22T04:05:05.068Z,7.80
2022-10-22T04:07:33.152Z,7.57
2022-10-22T04:10:01.220Z,7.90
2022-10-22T04:12:30.585Z,8.50
2022-10-22T04:14:58.587Z,8.97
2022-10-22T04:17:26.596Z,9.77
2022-10-22T04:19:54.583Z,9.50
2022-10-22T04:22:22.567Z,8.93
2022-10-22T04:27:18.427Z,9.83
2022-10-22T04:29:47.724Z,10.70
2022-10-22T04:32:15.694Z,10.70
2022-10-22T04:34:43.664Z,10.87
2022-10-22T04:37:11.674Z,10.70
2022-10-22T04:39:39.698Z,10.67
2022-10-22T04:42:07.673Z,10.83
2022-10-22T04:44:35.949Z,11.60
2022-10-22T04:47:05.489Z,11.30
2022-10-22T04:49:33.479Z,11.33
2022-10-22T04:52:01.460Z,10.93
2022-10-22T04:54:32.251Z,11.87
2022-10-22T04:57:01.310Z,10.97
2022-10-22T04:59:29.390Z,10.90
2022-10-22T05:01:57.344Z,10.30
2022-10-22T05:04:26.758Z,11.13
2022-10-22T05:06:54.728Z,9.90
2022-10-22T05:09:22.958Z,9.77
2022-10-22T05:11:53.406Z,10.23
2022-10-22T05:14:23.464Z,10.40
2022-10-22T05:16:52.132Z,10.73
2022-10-22T05:19:23.907Z,10.57
2022-10-22T05:21:55.357Z,10.93
2022-10-22T05:24:23.461Z,11.60
2022-10-22T05:26:51.818Z,11.27
2022-10-22T05:29:20.341Z,11.73
2022-10-22T05:31:48.480Z,10.73
2022-10-22T05:34:16.848Z,12.40
2022-10-22T05:36:44.939Z,11.13
2022-10-22T05:39:14.378Z,11.43
2022-10-22T05:41:42.385Z,11.93
2022-10-22T05:44:13.389Z,12.70
2022-10-22T05:46:43.258Z,12.90
2022-10-22T05:49:15.417Z,13.23
2022-10-22T05:51:43.420Z,13.07
2022-10-22T05:54:22.484Z,14.90
2022-10-22T05:56:50.521Z,14.97
2022-10-22T05:59:18.631Z,14.97
2022-10-22T06:01:46.654Z,15.13
2022-10-22T06:04:16.156Z,15.77
2022-10-22T06:06:46.144Z,15.50
2022-10-22T06:09:18.397Z,15.70
2022-10-22T06:11:49.068Z,14.93
2022-10-22T06:14:17.916Z,14.80
2022-10-22T06:16:46.011Z,14.30
2022-10-22T06:19:15.540Z,14.07
2022-10-22T06:21:43.745Z,14.97
2022-10-22T06:24:12.739Z,14.93
2022-10-22T06:26:41.571Z,14.90
2022-10-22T06:29:11.453Z,14.90
2022-10-22T06:31:39.424Z,16.53
2022-10-22T06:34:09.353Z,15.67
2022-10-22T06:36:37.931Z,15.63
2022-10-22T06:39:06.628Z,16.70
2022-10-22T06:41:34.695Z,15.80
2022-10-22T06:44:02.775Z,16.90
2022-10-22T06:46:32.735Z,15.77
2022-10-22T06:49:03.003Z,16.27
2022-10-22T06:51:31.360Z,17.17
2022-10-22T06:53:59.936Z,17.90
2022-10-22T06:56:29.501Z,18.20
2022-10-22T06:58:58.714Z,17.13
2022-10-22T07:01:28.473Z,17.47
2022-10-22T07:03:57.934Z,18.13
2022-10-22T07:06:28.054Z,18.90
2022-10-22T07:08:56.712Z,18.40
2022-10-22T07:11:26.877Z,18.80
2022-10-22T07:13:56.433Z,18.80
2022-10-22T07:16:29.509Z,18.63
2022-10-22T07:19:01.965Z,19.17
2022-10-22T07:21:30.587Z,19.23
2022-10-22T07:23:59.259Z,19.37
2022-10-22T07:26:30.860Z,19.30
2022-10-22T07:28:59.383Z,18.53
2022-10-22T07:31:28.067Z,19.00
2022-10-22T07:33:56.052Z,18.90
2022-10-22T07:36:25.394Z,19.23
2022-10-22T07:38:57.118Z,18.43
2022-10-22T07:41:25.466Z,21.17
2022-10-22T07:43:53.601Z,19.53
2022-10-22T07:46:21.964Z,18.93
2022-10-22T07:48:50.505Z,18.33
2022-10-22T07:51:18.649Z,19.07
2022-10-22T07:53:48.002Z,18.40
2022-10-22T07:56:16.061Z,20.27
2022-10-22T07:58:44.053Z,19.50
2022-10-22T08:01:12.192Z,18.60
2022-10-22T08:03:40.327Z,17.17
2022-10-22T08:06:08.880Z,18.73
2022-10-22T08:08:36.937Z,20.37
2022-10-22T08:11:06.501Z,18.70
2022-10-22T08:13:34.491Z,16.77
2022-10-22T08:16:02.603Z,17.10
2022-10-22T08:18:31.193Z,18.27
2022-10-22T08:20:59.464Z,18.73
2022-10-22T08:23:28.948Z,17.77
2022-10-22T08:25:58.469Z,18.57
2022-10-22T08:28:29.651Z,39.73
2022-10-22T08:30:57.682Z,34.70
2022-10-22T08:33:25.724Z,36.73
2022-10-22T08:35:53.983Z,29.30
2022-10-22T08:38:22.178Z,25.20
2022-10-22T08:40:52.853Z,24.60
2022-10-22T08:43:40.564Z,23.57
2022-10-22T08:46:28.085Z,23.00
2022-10-22T08:48:58.980Z,23.40
2022-10-22T08:51:30.771Z,21.87
2022-10-22T08:54:20.303Z,23.13
2022-10-22T08:56:56.024Z,23.73
2022-10-22T08:59:30.947Z,21.63
2022-10-22T09:01:59.125Z,23.83
2022-10-22T09:04:32.393Z,21.70
2022-10-22T09:07:01.515Z,22.40
2022-10-22T09:09:35.136Z,24.10
2022-10-22T09:12:04.874Z,23.30
2022-10-22T09:14:34.317Z,23.73
2022-10-22T09:17:17.211Z,26.37
2022-10-22T09:19:56.915Z,22.47
2022-10-22T09:22:37.793Z,26.47
2022-10-22T09:25:20.096Z,24.47
2022-10-22T09:27:48.878Z,25.57
2022-10-22T09:30:20.107Z,24.27
2022-10-22T09:32:48.990Z,22.73
2022-10-22T09:35:23.610Z,22.37
2022-10-22T09:37:54.856Z,21.03
2022-10-22T09:40:24.409Z,20.77
2022-10-22T09:42:52.395Z,20.17
2022-10-22T09:45:25.313Z,21.20
2022-10-22T09:48:11.126Z,21.07
2022-10-22T09:50:44.002Z,20.33
2022-10-22T09:53:21.779Z,20.87
2022-10-22T09:58:23.881Z,23.47
2022-10-22T10:00:55.745Z,20.73
2022-10-22T10:03:25.742Z,18.87
2022-10-22T10:05:58.063Z,19.50
2022-10-22T10:08:28.094Z,21.63
2022-10-22T10:11:00.704Z,20.47
2022-10-22T10:13:43.889Z,19.03
2022-10-22T10:16:28.134Z,20.30
2022-10-22T10:19:18.481Z,20.70
2022-10-22T10:21:55.268Z,19.63
2022-10-22T10:24:29.987Z,21.70
2022-10-22T10:27:03.573Z,15.73
2022-10-22T10:29:42.804Z,15.20
2022-10-22T10:32:35.081Z,14.73
2022-10-22T10:35:16.972Z,14.37
2022-10-22T10:37:51.252Z,13.13
2022-10-22T10:40:29.667Z,13.90
2022-10-22T10:43:03.770Z,12.07
2022-10-22T10:45:38.857Z,13.60
2022-10-22T10:48:17.725Z,14.03
2022-10-22T10:50:56.280Z,12.53
2022-10-22T10:53:34.693Z,12.67
2022-10-22T10:56:10.940Z,12.63
2022-10-22T10:58:49.643Z,12.70
2022-10-22T11:01:28.579Z,10.87
2022-10-22T11:04:29.106Z,11.87
2022-10-22T11:07:10.961Z,10.03
2022-10-22T11:09:42.685Z,9.80
2022-10-22T11:12:16.210Z,10.63
2022-10-22T11:14:52.637Z,11.03
2022-10-22T11:17:24.238Z,9.33
2022-10-22T11:20:00.242Z,8.00
2022-10-22T11:22:34.380Z,10.77
2022-10-22T11:25:07.215Z,7.83
2022-10-22T11:27:38.450Z,8.73
2022-10-22T11:30:14.067Z,7.23
2022-10-22T11:32:45.124Z,7.87
2022-10-22T11:35:17.510Z,8.77
2022-10-22T11:37:48.545Z,7.57
2022-10-22T11:40:21.021Z,7.27
2022-10-22T11:42:51.948Z,9.00
2022-10-22T11:45:32.020Z,9.97
2022-10-22T11:48:08.074Z,6.43
2022-10-22T11:50:50.680Z,8.77
2022-10-22T11:53:27.399Z,7.70
2022-10-22T11:56:00.014Z,9.23
2022-10-22T11:58:42.327Z,9.23
2022-10-22T12:01:49.054Z,7.93
2022-10-22T12:04:23.288Z,8.20
2022-10-22T12:06:58.800Z,9.83
2022-10-22T12:09:32.372Z,10.33
2022-10-22T12:12:06.126Z,8.70
2022-10-22T12:14:41.683Z,9.47
2022-10-22T12:17:13.538Z,8.33
2022-10-22T12:19:44.171Z,8.83
2022-10-22T12:22:17.915Z,7.20
2022-10-22T12:24:49.413Z,6.57
2022-10-22T12:27:22.583Z,7.37
2022-10-22T12:29:55.861Z,9.37
2022-10-22T12:32:23.999Z,6.80
2022-10-22T12:34:53.451Z,7.83
2022-10-22T12:37:21.726Z,7.03
2022-10-22T12:39:52.170Z,7.83
2022-10-22T12:42:21.956Z,7.67
2022-10-22T12:44:55.547Z,6.77
2022-10-22T12:47:23.688Z,7.40
2022-10-22T12:49:52.347Z,8.67
2022-10-22T12:52:23.727Z,7.40
2022-10-22T12:54:54.833Z,6.67
2022-10-22T12:57:24.736Z,7.03
2022-10-22T12:59:53.261Z,6.93
2022-10-22T13:02:24.581Z,9.27
2022-10-22T13:05:17.332Z,9.83
2022-10-22T13:07:48.546Z,7.53
2022-10-22T13:10:21.253Z,9.57
2022-10-22T13:12:56.288Z,6.93
2022-10-22T13:15:39.613Z,11.50
2022-10-22T13:18:17.032Z,9.47
2022-10-22T13:20:53.486Z,7.97
2022-10-22T13:23:23.822Z,9.33
2022-10-22T13:26:02.343Z,9.50
2022-10-22T13:28:31.660Z,7.70
2022-10-22T13:31:02.123Z,9.20
2022-10-22T13:33:34.328Z,11.00
2022-10-22T13:36:02.502Z,10.17
2022-10-22T13:38:30.739Z,10.37
2022-10-22T13:41:00.568Z,10.63
2022-10-22T13:43:28.580Z,11.23
2022-10-22T13:46:00.042Z,10.13
2022-10-22T13:48:30.728Z,9.50
2022-10-22T13:50:58.966Z,9.97
2022-10-22T13:53:29.004Z,9.43
2022-10-22T13:55:57.126Z,9.17
2022-10-22T13:58:26.537Z,9.53
2022-10-22T14:00:57.063Z,13.90
2022-10-22T14:03:28.075Z,8.57
2022-10-22T14:05:56.281Z,10.20
2022-10-22T14:08:25.877Z,9.20
2022-10-22T14:10:54.352Z,12.37
2022-10-22T14:13:22.808Z,7.37
2022-10-22T14:15:53.283Z,11.27
2022-10-22T14:18:26.609Z,8.90
2022-10-22T14:20:56.031Z,7.00
2022-10-22T14:23:26.770Z,8.83
2022-10-22T14:25:55.259Z,9.37
2022-10-22T14:28:23.306Z,9.83
2022-10-22T14:30:53.386Z,12.50
2022-10-22T14:33:28.863Z,11.33
2022-10-22T14:35:59.934Z,8.77
2022-10-22T14:38:28.083Z,8.10
2022-10-22T14:40:56.450Z,8.47
2022-10-22T14:43:26.634Z,9.37
2022-10-22T14:45:56.490Z,8.37
2022-10-22T14:48:24.787Z,9.87
2022-10-22T14:50:52.868Z,8.87
2022-10-22T14:53:20.903Z,10.13
2022-10-22T14:55:49.443Z,7.60
2022-10-22T14:58:17.556Z,9.93
2022-10-22T15:00:45.800Z,8.57
2022-10-22T15:03:15.267Z,9.43
2022-10-22T15:05:44.860Z,8.40
2022-10-22T15:08:14.698Z,9.07
2022-10-22T15:10:42.789Z,6.60
2022-10-22T15:13:10.809Z,8.53
2022-10-22T15:15:41.368Z,7.80
2022-10-22T15:18:09.656Z,9.77
2022-10-22T15:20:39.239Z,7.17
2022-10-22T15:23:07.227Z,5.97
2022-10-22T15:25:35.255Z,8.83
2022-10-22T15:28:09.606Z,6.93
2022-10-22T15:30:38.249Z,7.80
2022-10-22T15:33:06.722Z,6.70
2022-10-22T15:35:34.697Z,6.73
2022-10-22T15:38:06.514Z,7.13
2022-10-22T15:40:34.585Z,7.17
2022-10-22T15:43:02.736Z,10.20
2022-10-22T15:45:30.698Z,8.10
2022-10-22T15:47:58.740Z,7.40
2022-10-22T15:50:27.277Z,6.33
2022-10-22T15:52:55.717Z,11.53
2022-10-22T15:55:25.252Z,5.17
2022-10-22T15:57:58.012Z,8.77
2022-10-22T16:00:28.631Z,6.17
2022-10-22T16:02:56.601Z,5.20
2022-10-22T16:05:24.907Z,7.57
2022-10-22T16:07:55.709Z,8.20
2022-10-22T16:10:25.452Z,7.60
2022-10-22T16:12:54.622Z,5.10
2022-10-22T16:15:22.634Z,7.03
2022-10-22T16:17:52.493Z,5.93
2022-10-22T16:20:20.464Z,5.63
2022-10-22T16:22:51.123Z,3.77
2022-10-22T16:25:19.138Z,7.27
2022-10-22T16:27:51.930Z,4.47
2022-10-22T16:30:19.892Z,7.10
2022-10-22T16:32:47.935Z,6.50
2022-10-22T16:35:16.023Z,8.23
2022-10-22T16:37:44.340Z,7.97
2022-10-22T16:40:13.926Z,6.27
2022-10-22T16:42:42.095Z,6.33
2022-10-22T16:45:12.368Z,5.53
2022-10-22T16:47:43.014Z,5.40
2022-10-22T16:50:11.409Z,6.73
2022-10-22T16:52:39.388Z,6.00
2022-10-22T16:55:07.828Z,7.33
2022-10-22T16:57:35.946Z,5.33
2022-10-22T17:00:05.363Z,5.80
2022-10-22T17:02:35.292Z,7.07
2022-10-22T17:05:03.284Z,9.83
2022-10-22T17:07:31.273Z,6.47
2022-10-22T17:09:59.264Z,8.03
2022-10-22T17:12:27.212Z,5.70
2022-10-22T17:14:55.188Z,9.23
2022-10-22T17:17:23.189Z,6.73
2022-10-22T17:19:52.636Z,6.50
2022-10-22T17:22:20.649Z,5.53
2022-10-22T17:24:48.590Z,6.07
2022-10-22T17:27:16.543Z,5.27
2022-10-22T17:29:44.535Z,7.00
2022-10-22T17:32:12.557Z,9.23
2022-10-22T17:34:40.538Z,5.97
2022-10-22T17:37:09.857Z,5.60
2022-10-22T17:39:37.812Z,7.53
2022-10-22T17:42:06.235Z,7.73
2022-10-22T17:44:34.209Z,5.57
2022-10-22T17:47:02.182Z,5.87
2022-10-22T17:49:30.140Z,7.97
2022-10-22T17:51:58.160Z,7.47
2022-10-22T17:54:27.495Z,6.77
2022-10-22T17:56:55.464Z,7.50
2022-10-22T17:59:23.415Z,5.60
2022-10-22T18:01:51.511Z,6.93
2022-10-22T18:04:20.908Z,6.20
2022-10-22T18:06:49.114Z,4.80
2022-10-22T18:09:19.271Z,5.23
2022-10-22T18:11:50.183Z,6.23
2022-10-22T18:14:18.929Z,6.03
2022-10-22T18:16:47.876Z,6.47
2022-10-22T18:19:17.871Z,7.23
2022-10-22T18:21:45.864Z,6.10
2022-10-22T18:24:14.754Z,6.57
2022-10-22T18:26:42.982Z,7.00
2022-10-22T18:29:17.078Z,7.27
2022-10-22T18:31:45.293Z,6.60
2022-10-22T18:34:13.662Z,7.83
2022-10-22T18:36:42.491Z,7.30
2022-10-22T18:39:15.419Z,6.07
2022-10-22T18:41:43.859Z,6.43
2022-10-22T18:44:15.364Z,7.13
2022-10-22T18:46:44.198Z,8.03
2022-10-22T18:49:18.150Z,6.83
2022-10-22T18:51:47.037Z,7.67
2022-10-22T18:54:23.986Z,6.50
2022-10-22T18:56:52.662Z,8.27
2022-10-22T18:59:23.719Z,7.07
2022-10-22T19:01:53.464Z,8.63
2022-10-22T19:04:21.476Z,7.50
2022-10-22T19:06:49.469Z,6.70
2022-10-22T19:09:17.807Z,7.03
2022-10-22T19:11:46.547Z,7.23
2022-10-22T19:14:19.284Z,7.33
2022-10-22T19:16:48.888Z,8.57
2022-10-22T19:19:19.088Z,11.33
2022-10-22T19:21:47.233Z,8.90
2022-10-22T19:24:16.062Z,8.73
2022-10-22T19:26:44.118Z,10.30
2022-10-22T19:29:12.213Z,8.77
2022-10-22T19:31:41.678Z,10.87
2022-10-22T19:34:11.999Z,9.37
2022-10-22T19:36:39.986Z,9.40
2022-10-22T19:39:08.884Z,9.27
2022-10-22T19:41:37.559Z,9.80
2022-10-22T19:44:05.773Z,10.30
2022-10-22T19:46:33.742Z,10.10
2022-10-22T19:49:04.477Z,8.93
2022-10-22T19:51:34.721Z,8.40
2022-10-22T19:54:05.083Z,9.10
2022-10-22T19:56:34.208Z,9.07
2022-10-22T19:59:02.381Z,8.70
2022-10-22T20:01:31.782Z,8.23
2022-10-22T20:04:01.403Z,10.77
2022-10-22T20:06:29.742Z,8.27
2022-10-22T20:08:59.553Z,12.53
2022-10-22T20:11:29.960Z,8.97
2022-10-22T20:13:58.524Z,9.63
2022-10-22T20:16:29.904Z,10.93
2022-10-22T20:19:01.767Z,9.83
2022-10-22T20:21:30.026Z,13.00
2022-10-22T20:24:00.020Z,9.97
2022-10-22T20:26:28.891Z,10.17
2022-10-22T20:28:57.831Z,9.97
2022-10-22T20:31:28.536Z,12.47
2022-10-22T20:33:57.751Z,12.33
2022-10-22T20:36:26.237Z,8.30
2022-10-22T20:38:54.236Z,9.73
2022-10-22T20:41:24.341Z,9.10
2022-10-22T20:43:53.753Z,8.07
2022-10-22T20:46:24.117Z,9.07
2022-10-22T20:48:53.592Z,9.63
2022-10-22T20:51:21.690Z,8.53
2022-10-22T20:53:49.817Z,8.20
2022-10-22T20:56:18.930Z,7.40
2022-10-22T20:58:48.988Z,8.87
2022-10-22T21:01:21.688Z,8.30
2022-10-22T21:03:50.521Z,9.13
2022-10-22T21:06:20.916Z,8.40
2022-10-22T21:08:49.031Z,8.50
2022-10-22T21:11:17.276Z,8.43
2022-10-22T21:13:45.372Z,7.30
2022-10-22T21:16:16.025Z,8.40
2022-10-22T21:18:44.013Z,9.57
2022-10-22T21:21:12.312Z,9.07
2022-10-22T21:23:41.110Z,7.83
2022-10-22T21:26:09.508Z,7.60
2022-10-22T21:28:38.259Z,8.03
2022-10-22T21:31:08.337Z,8.13
2022-10-22T21:33:38.939Z,7.00
2022-10-22T21:36:09.104Z,9.80
2022-10-22T21:38:38.089Z,7.37
2022-10-22T21:41:06.961Z,7.27
2022-10-22T21:43:35.357Z,6.80
2022-10-22T21:46:08.420Z,10.27
2022-10-22T21:48:40.385Z,9.23
2022-10-22T21:51:09.817Z,9.73
2022-10-22T21:53:38.491Z,7.50
2022-10-22T21:56:07.629Z,6.97
2022-10-22T21:58:36.436Z,9.23
2022-10-22T22:01:05.250Z,6.90
2022-10-22T22:03:33.305Z,7.23
2022-10-22T22:06:03.933Z,8.20
2022-10-22T22:08:33.181Z,10.17
2022-10-22T22:11:05.210Z,7.40
2022-10-22T22:13:34.433Z,9.57
2022-10-22T22:16:03.340Z,8.87
2022-10-22T22:18:32.321Z,8.00
2022-10-22T22:21:05.236Z,7.90
2022-10-22T22:23:33.566Z,9.07
2022-10-22T22:26:02.151Z,7.63
2022-10-22T22:28:31.139Z,8.03
2022-10-22T22:30:59.202Z,6.57
2022-10-22T22:33:27.586Z,6.97
2022-10-22T22:35:59.969Z,6.50
2022-10-22T22:38:29.302Z,6.67
2022-10-22T22:40:59.937Z,6.00
2022-10-22T22:43:28.629Z,5.97
2022-10-22T22:46:04.045Z,6.83
2022-10-22T22:48:32.596Z,6.03
2022-10-22T22:51:00.790Z,7.00
2022-10-22T22:53:30.266Z,8.97
2022-10-22T22:56:06.915Z,8.87
2022-10-22T22:58:35.043Z,8.37
2022-10-22T23:01:18.123Z,13.50
2022-10-22T23:03:49.354Z,10.47
2022-10-22T23:06:17.553Z,9.90
2022-10-22T23:08:50.812Z,8.33
2022-10-22T23:11:19.804Z,8.47
2022-10-22T23:13:48.202Z,8.80
2022-10-22T23:16:18.674Z,7.83
2022-10-22T23:18:47.678Z,8.37
2022-10-22T23:21:17.587Z,9.87
2022-10-22T23:23:48.816Z,12.63
2022-10-22T23:26:20.088Z,9.50
2022-10-22T23:28:48.376Z,11.23
2022-10-22T23:31:17.807Z,10.13
2022-10-22T23:33:46.076Z,10.97
2022-10-22T23:36:14.690Z,11.30
2022-10-22T23:38:43.395Z,10.77
2022-10-22T23:41:12.908Z,10.33
2022-10-22T23:43:40.957Z,10.10
2022-10-22T23:46:11.813Z,9.50
2022-10-22T23:48:40.176Z,8.93
2022-10-22T23:51:11.162Z,9.47
2022-10-22T23:53:39.388Z,9.40
2022-10-22T23:56:09.717Z,10.60
2022-10-22T23:58:39.310Z,12.57
